x

Tanner Bank - 121nm West Of San Diego, Ca (46047) Wave Buoy

8:50 - Thu 27th Jul 2017 All times are PDT. -7 hours from GMT.

  • Sig Wave height 4.3ft
  • Swell Direction
  • Peak Period 12s
  • Average Period 5s
  • Wind
    13mph, 18mph gusts
  • Sea Temp 64°f
  • Ar Temp 61°f
  • Sea Pressure 1013.5mb
  • Tanner Bank - 121nm West Of San Diego, Ca
  • Tanner Bank - 121nm West Of San Diego, Ca

More Historic Weather Station data

Upgrade to MSW Pro to gain access to the past 30 days of data for over 8000 Wavebouys and Weather Stations around the globe.

Join Pro

Comparision Forecast

View Surf forecast
   
Qui 07/27 8:50 4.5ft 12s 5s 13 18 mph 1013.5mb 64f 61f
7:50 4.5ft 13s 5s 13 18 mph 1013mb 64f 62f
6:50 4ft 8s 5s 13 18 mph 1013.1mb 64f 62f
5:50 3.5ft 13s 5s 16 20 mph 1013.1mb 64f 62f
4:50 3.5ft 8s 5s 16 20 mph 1013.5mb 64f 62f
3:50 4ft 9s 5s 16 20 mph 1014mb 64f 62f
2:50 4ft 9s 5s 13 18 mph 1014.5mb 64f 62f
1:50 3.5ft 14s 5s 13 16 mph 1014.8mb 64f 62f
12:50 3.5ft 14s 5s 16 18 mph 1014.8mb 64f 62f
11:50 3ft 9s 5s 13 18 mph 1015.2mb 64f 61f
10:50 3.5ft 8s 6s 11 13 mph 1015.6mb 64f 61f
9:50 3.5ft 10s 6s 13 18 mph 1015.7mb 64f 61f
8:50 3.5ft 9s 6s 11 13 mph 1015.9mb 64f 61f
7:50 3.5ft 9s 6s 9 13 mph 1015.8mb 64f 61f
6:50 3.5ft 10s 6s 9 13 mph 1015.6mb 64f 61f
5:50 4ft 10s 6s 11 16 mph 1015.1mb 64f 61f
4:50 4ft 10s 6s 13 18 mph 1014.8mb 64f 61f
3:50 4ft 10s 6s 13 18 mph 1015mb 64f 61f
1:50 3.5ft 9s 6s 13 16 mph 1015.4mb 64f 61f
12:50 3.5ft 9s 6s 11 13 mph 1015.6mb 64f 62f
Qua 07/26 11:50 3.5ft 9s 6s 11 13 mph 1015.9mb 64f 62f
10:50 3.5ft 10s 6s 11 16 mph 1015.7mb 64f 62f
9:50 3.5ft 8s 6s 13 18 mph 1015.5mb 64f 62f
8:50 3.5ft 8s 6s 11 16 mph 1015.5mb 65f 62f
7:50 3.5ft 9s 6s 11 16 mph 1015.3mb 65f 62f
6:50 4ft 10s 7s 11 13 mph 1015.1mb 65f 62f
5:50 3.5ft 11s 7s 11 18 mph 1014.9mb 65f 62f
4:50 4ft 10s 7s 11 13 mph 1015.6mb 65f 63f
3:50 3.5ft 10s 7s 11 13 mph 1015.6mb 65f 63f
2:50 3.5ft 10s 7s 11 13 mph 1016.5mb 65f 63f
1:50 3.5ft 11s 8s 11 13 mph 1016.7mb 65f 63f
12:50 3.5ft 10s 8s 7 9 mph 1016.7mb 65f 63f
11:50 3.5ft 10s 8s 7 9 mph 1017.1mb 65f 63f
10:50 3.5ft 10s 8s 7 9 mph 1017.4mb 65f 62f
9:50 3.5ft 10s 8s 7 9 mph 1017.4mb 64f 63f
8:50 3.5ft 11s 8s 2 4 mph 1017.2mb 65f 63f
7:50 3.5ft 10s 8s 7 9 mph 1016.8mb 65f 62f
6:50 3.5ft 10s 8s 7 11 mph 1016.3mb 64f 63f
5:50 3.5ft 9s 8s 7 11 mph 1016mb 64f 62f
4:50 3.5ft 11s 8s 4 9 mph 1016.2mb 64f 63f
3:50 3.5ft 11s 8s 7 9 mph 1016.2mb 65f 63f
2:50 3.5ft 11s 8s 7 9 mph 1016.2mb 65f 63f
1:50 3.5ft 11s 8s 7 9 mph 1016.5mb 65f 63f
12:50 4ft 10s 8s 7 9 mph 1016.3mb 65f 63f
Ter 07/25 11:50 4ft 10s 8s 7 9 mph 1016.3mb 65f 64f
10:50 4ft 9s 8s 4 9 mph 1016mb 65f 63f
9:50 4.5ft 9s 8s 7 9 mph 1015.5mb 65f 64f
8:50 4.5ft 8s 8s 4 7 mph 1015.1mb 65f 63f
7:50 4ft 11s 8s 4 7 mph 1015.1mb 65f 63f
6:50 4.5ft 8s 8s 7 9 mph 1015.1mb 65f 63f
5:50 4ft 10s 8s 7 9 mph 1015.1mb 65f 63f
4:50 4.5ft 11s 8s 7 9 mph 1015.4mb 65f 63f
3:50 4.5ft 10s 8s 7 9 mph 1015.7mb 65f 63f
2:50 4.5ft 11s 8s 9 9 mph 1015.8mb 65f 63f
1:50 4.5ft 11s 9s 7 7 mph 1015.8mb 65f 63f
12:50 4.5ft 9s 9s 4 7 mph 1016.2mb 65f 63f
11:50 4.5ft 11s 9s 2 2 mph 1016.1mb 65f 63f
10:50 4.5ft 11s 9s 4 4 mph 1015.8mb 64f 62f
9:50 4.5ft 11s 9s 2 4 mph 1015.6mb 64f 62f
8:50 4.5ft 11s 9s 4 4 mph 1015.3mb 64f 62f
7:50 4.5ft 11s 9s 2 4 mph 1015mb 64f 62f
6:50 4ft 11s 8s 2 4 mph 1014.7mb 64f 62f
5:50 4.5ft 12s 9s 2 4 mph 1014.3mb 64f 62f
4:50 4.5ft 10s 8s 4 7 mph 1013.9mb 64f 62f
3:50 4.5ft 11s 9s 2 4 mph 1013.9mb 64f 61f
2:50 4ft 10s 8s 2 4 mph 1014mb 64f 61f
1:50 4.5ft 11s 9s 9 11 mph 1014mb 64f 62f
12:50 3.5ft 11s 8s 7 9 mph 1014.1mb 64f 62f
Seg 07/24 11:50 4.5ft 8s 8s 7 9 mph 1014mb 64f 63f
10:50 4ft 10s 8s 7 9 mph 1013.8mb 64f 63f
9:50 3.5ft 14s 8s 4 4 mph 1013.3mb 64f 62f
8:50 3.5ft 9s 8s 7 9 mph 1012.7mb 64f 62f
7:50 4ft 9s 8s 7 9 mph 1012.2mb 64f 62f
6:50 4ft 8s 8s 7 9 mph 1011.8mb 65f 62f
5:50 4.5ft 10s 8s 4 7 mph 1011.8mb 65f 62f
4:50 5ft 9s 8s 4 9 mph 1012.1mb 65f 62f
3:50 4.5ft 9s 8s 2 4 mph 1012.4mb 65f 63f
2:50 4.5ft 9s 8s 2 4 mph 1012.8mb 64f 63f
1:50 4.5ft 8s 8s 2 4 mph 1013.3mb 64f 63f
12:50 4.5ft 9s 8s 4 7 mph 1013.4mb 64f 62f
11:50 4.5ft 9s 8s 4 4 mph 1013.6mb 63f 62f
10:50 4.5ft 9s 8s 4 4 mph 1013.9mb 63f 62f
9:50 4ft 9s 8s 4 7 mph 1013.7mb 63f 61f
8:50 4ft 10s 8s 2 4 mph 1013.6mb 63f 61f
7:50 4.5ft 9s 8s 7 9 mph 1012.8mb 63f 61f
6:50 4ft 10s 8s 4 7 mph 1012.7mb 63f 61f
5:50 4ft 10s 8s 2 4 mph 1012.3mb 63f 61f
4:50 4ft 9s 8s 4 4 mph 1012.1mb 63f 61f